Time;durP1;ratioP1;P1;durP2;ratioP2;P2;SDS_P1;SDS_P2;PMS_P1;PMS_P2;Temp;Humidity;BMP_temperature;BMP_pressure;BME280_temperature;BME280_humidity;BME280_pressure;Samples;Min_cycle;Max_cycle;Signal;HPM_P1;HPM_P2
2022/09/30 00:01:55;;;;;;;65.90;4.53;;;6.30;99.90;;;7.00;100.00;97316.66;4971491;28;20471;-82
2022/09/30 00:04:25;;;;;;;33.80;4.80;;;6.20;99.90;;;6.89;100.00;97314.53;4972136;28;20467;-82
2022/09/30 00:06:55;;;;;;;46.83;4.50;;;6.10;99.90;;;6.86;100.00;97313.09;4971203;28;20444;-82
2022/09/30 00:09:24;;;;;;;17.63;5.30;;;6.10;99.90;;;6.91;100.00;97320.34;4971709;28;21486;-82
2022/09/30 00:11:55;;;;;;;22.27;4.50;;;6.10;99.90;;;6.82;100.00;97322.25;4970876;28;20539;-82
2022/09/30 00:14:24;;;;;;;42.17;5.10;;;6.00;99.90;;;6.80;100.00;97336.41;4970911;28;20471;-82
2022/09/30 00:16:53;;;;;;;19.67;3.63;;;6.00;99.90;;;6.76;100.00;97332.56;4972137;28;20540;-82
2022/09/30 00:19:24;;;;;;;14.30;3.10;;;5.90;99.90;;;6.74;100.00;97329.31;4971131;28;20479;-82
2022/09/30 00:21:53;;;;;;;14.13;3.30;;;5.90;99.90;;;6.78;100.00;97325.38;4970527;28;20463;-82
2022/09/30 00:24:21;;;;;;;30.93;4.20;;;6.00;99.90;;;6.73;100.00;97332.91;4971691;28;20473;-82
2022/09/30 00:26:50;;;;;;;13.83;4.13;;;5.90;99.90;;;6.64;100.00;97333.97;4969949;28;20539;-82
2022/09/30 00:29:21;;;;;;;31.13;4.50;;;5.90;99.90;;;6.58;100.00;97340.72;4970585;28;20614;-82
2022/09/30 00:31:50;;;;;;;40.80;4.03;;;5.80;99.90;;;6.62;100.00;97341.16;4970804;28;20609;-82
2022/09/30 00:34:19;;;;;;;16.70;4.60;;;5.80;99.90;;;6.62;100.00;97343.75;4970718;28;20531;-82
2022/09/30 00:36:50;;;;;;;10.97;4.33;;;5.80;99.90;;;6.65;100.00;97348.59;4970241;28;20588;-82
2022/09/30 00:39:22;;;;;;;12.07;3.20;;;5.80;99.90;;;6.63;100.00;97337.59;4971158;28;21032;-84
2022/09/30 00:41:55;;;;;;;3.50;2.70;;;5.80;99.90;;;6.62;100.00;97335.97;4970850;28;20457;-82
2022/09/30 00:44:49;;;;;;;7.80;2.50;;;5.70;99.90;;;6.51;100.00;97343.22;4968392;28;20571;-82
2022/09/30 00:47:45;;;;;;;25.07;3.70;;;5.60;99.90;;;6.52;100.00;97339.66;4967977;28;20469;-82
2022/09/30 00:50:31;;;;;;;2.83;2.50;;;5.60;99.90;;;6.54;100.00;97340.25;4967445;28;20502;-82
2022/09/30 00:53:10;;;;;;;3.77;2.60;;;5.70;99.90;;;6.56;100.00;97348.66;4967903;28;20488;-82
2022/09/30 00:55:50;;;;;;;11.23;2.77;;;5.70;99.90;;;6.56;100.00;97347.84;4967044;28;20538;-82
2022/09/30 00:58:28;;;;;;;4.03;2.50;;;5.70;99.90;;;6.53;100.00;97351.63;4968141;28;20476;-82
2022/09/30 01:01:01;;;;;;;5.17;3.03;;;5.60;99.90;;;6.51;100.00;97351.00;4968245;28;20556;-82
2022/09/30 01:03:34;;;;;;;3.17;2.60;;;5.60;99.90;;;6.43;100.00;97356.28;4968599;28;20484;-82
2022/09/30 01:06:04;;;;;;;5.80;2.40;;;5.50;99.90;;;6.29;100.00;97351.06;4968638;28;20534;-82
2022/09/30 01:08:39;;;;;;;2.30;2.10;;;5.50;99.90;;;6.04;100.00;97361.66;4967478;28;20540;-83
2022/09/30 01:11:08;;;;;;;4.50;2.83;;;5.30;99.90;;;5.99;100.00;97358.81;4967452;28;20590;-82
2022/09/30 01:13:41;;;;;;;5.80;2.60;;;5.30;99.90;;;5.97;100.00;97362.56;4968388;28;20482;-83
2022/09/30 01:16:36;;;;;;;3.97;2.73;;;5.20;99.90;;;6.02;100.00;97355.84;4969364;28;20499;-82
2022/09/30 01:20:01;;;;;;;5.40;2.37;;;5.20;99.90;;;6.02;100.00;97361.03;4968926;28;20479;-82
2022/09/30 01:22:46;;;;;;;2.80;2.40;;;5.20;99.90;;;5.97;100.00;97359.97;4936273;28;20913;-83
2022/09/30 01:26:01;;;;;;;4.27;2.70;;;5.10;99.90;;;5.88;100.00;97368.78;4971538;28;20554;-82
2022/09/30 01:29:15;;;;;;;2.50;2.13;;;5.10;99.90;;;5.87;100.00;97364.56;4970393;28;20866;-82
2022/09/30 01:31:57;;;;;;;4.73;2.80;;;5.00;99.90;;;5.81;100.00;97367.84;4961362;28;20996;-82
2022/09/30 01:34:44;;;;;;;1.90;1.80;;;4.90;99.90;;;5.81;100.00;97367.84;4971914;28;20476;-82
2022/09/30 01:37:23;;;;;;;2.33;2.13;;;4.90;99.90;;;5.74;100.00;97370.31;4971075;28;20467;-82
2022/09/30 01:40:05;;;;;;;1.70;1.60;;;4.90;99.90;;;5.73;100.00;97367.88;4969386;28;20546;-82
2022/09/30 01:42:48;;;;;;;1.87;1.73;;;4.90;99.90;;;5.75;100.00;97368.53;4970104;28;20483;-82
2022/09/30 01:45:27;;;;;;;7.63;1.87;;;4.90;99.90;;;5.83;100.00;97366.66;4967767;28;20920;-82
2022/09/30 01:48:03;;;;;;;2.70;2.10;;;5.00;99.90;;;5.87;100.00;97362.78;4969329;28;20498;-82
2022/09/30 01:50:47;;;;;;;2.40;1.77;;;5.00;99.90;;;5.88;100.00;97358.41;4971238;28;21075;-82
2022/09/30 01:53:25;;;;;;;3.30;2.20;;;5.00;99.90;;;5.91;100.00;97364.06;4971016;28;20582;-82
2022/09/30 01:56:01;;;;;;;3.70;2.00;;;5.10;99.90;;;5.95;100.00;97359.31;4967229;28;20586;-83
2022/09/30 01:58:41;;;;;;;2.50;2.00;;;5.10;99.90;;;5.97;100.00;97365.16;4968722;28;20534;-82
2022/09/30 02:01:19;;;;;;;2.20;2.00;;;5.10;99.90;;;5.89;100.00;97367.81;4970933;28;20449;-82
2022/09/30 02:03:55;;;;;;;4.87;2.10;;;5.00;99.90;;;5.79;100.00;97362.84;4969734;28;20445;-82
2022/09/30 02:06:31;;;;;;;2.60;1.77;;;5.00;99.90;;;5.85;100.00;97366.50;4970276;28;20981;-82
2022/09/30 02:09:07;;;;;;;2.93;1.90;;;5.00;99.90;;;5.90;100.00;97372.81;4970214;28;20462;-82
2022/09/30 02:11:39;;;;;;;1.70;1.60;;;5.10;99.90;;;5.84;100.00;97372.66;4969829;28;20586;-82
2022/09/30 02:14:16;;;;;;;12.63;2.53;;;5.10;99.90;;;5.73;100.00;97380.84;4969776;28;20475;-82
2022/09/30 02:16:52;;;;;;;2.50;2.30;;;5.00;99.90;;;5.60;100.00;97378.84;4969025;28;20547;-82
2022/09/30 02:19:30;;;;;;;2.27;2.07;;;4.90;99.90;;;5.51;100.00;97379.88;4969150;28;21028;-83
2022/09/30 02:22:06;;;;;;;8.70;2.90;;;4.80;99.90;;;5.49;100.00;97384.41;4968595;28;21052;-82
2022/09/30 02:24:37;;;;;;;4.73;2.23;;;4.80;99.90;;;5.42;100.00;97384.28;4969226;28;20456;-82
2022/09/30 02:27:14;;;;;;;4.80;2.40;;;4.70;99.90;;;5.41;100.00;97387.88;4969619;28;21128;-82
2022/09/30 02:29:50;;;;;;;7.30;2.10;;;4.60;99.90;;;5.42;100.00;97392.06;4965838;28;20481;-82
2022/09/30 02:32:24;;;;;;;10.50;2.50;;;4.50;99.90;;;5.40;100.00;97381.06;4967474;28;20504;-82
2022/09/30 02:35:04;;;;;;;5.80;2.33;;;4.50;99.90;;;5.51;100.00;97385.88;4968084;28;20469;-81
2022/09/30 02:37:37;;;;;;;8.03;2.40;;;4.60;99.90;;;5.58;100.00;97375.63;4966157;28;20556;-82
2022/09/30 02:40:13;;;;;;;2.27;2.07;;;4.70;99.90;;;5.55;100.00;97368.97;4967988;28;20460;-82
2022/09/30 02:42:45;;;;;;;5.53;2.30;;;4.70;99.90;;;5.59;100.00;97370.25;4967823;28;20470;-81
2022/09/30 02:45:19;;;;;;;22.57;2.20;;;4.70;99.90;;;5.50;100.00;97371.28;4965344;28;20493;-82
2022/09/30 02:48:05;;;;;;;2.20;1.70;;;4.70;99.90;;;5.55;100.00;97374.16;4967220;28;21014;-82
2022/09/30 02:50:46;;;;;;;4.07;2.20;;;4.70;99.90;;;5.61;100.00;97374.47;4969869;28;20524;-81
2022/09/30 02:53:25;;;;;;;13.27;2.30;;;4.80;99.90;;;5.66;100.00;97385.16;4969116;28;20458;-82
2022/09/30 02:56:41;;;;;;;2.13;1.53;;;4.80;99.90;;;5.61;100.00;97371.88;4969330;28;20449;-82
2022/09/30 02:59:10;;;;;;;1.87;1.50;;;4.80;99.90;;;5.59;100.00;97385.81;4965989;28;20555;-82
2022/09/30 03:01:40;;;;;;;6.00;2.53;;;4.70;99.90;;;5.59;100.00;97391.00;4964644;28;20467;-82
2022/09/30 03:04:15;;;;;;;3.27;2.83;;;4.80;99.90;;;5.47;100.00;97394.97;4966166;28;20463;-82
2022/09/30 03:06:45;;;;;;;3.77;2.03;;;4.70;99.90;;;5.45;100.00;97399.50;4965872;28;20513;-84
2022/09/30 03:09:14;;;;;;;6.93;2.23;;;4.60;99.90;;;5.46;100.00;97395.13;4969325;28;20561;-90
2022/09/30 03:11:44;;;;;;;4.00;2.37;;;4.60;99.90;;;5.45;100.00;97398.69;4964400;28;21002;-82
2022/09/30 03:14:40;;;;;;;5.53;2.10;;;4.60;99.90;;;5.40;100.00;97401.00;4965707;28;20480;-82
2022/09/30 03:17:55;;;;;;;3.57;2.00;;;4.50;99.90;;;5.41;100.00;97400.84;4966326;28;20519;-82
2022/09/30 03:20:45;;;;;;;2.40;1.97;;;4.60;99.90;;;5.37;100.00;97402.16;4943615;28;20581;-82
2022/09/30 03:23:51;;;;;;;3.10;2.80;;;4.50;99.90;;;5.33;100.00;97402.66;4968282;28;20589;-83
2022/09/30 03:26:35;;;;;;;2.30;2.10;;;4.60;99.90;;;5.24;100.00;97401.88;4966552;28;20531;-82
2022/09/30 03:29:16;;;;;;;1.50;1.40;;;4.50;99.90;;;5.14;100.00;97406.47;4968664;28;20715;-82
2022/09/30 03:32:01;;;;;;;3.07;2.00;;;4.30;99.90;;;5.06;100.00;97414.28;4969668;28;20829;-82
2022/09/30 03:34:43;;;;;;;2.00;1.80;;;4.30;99.90;;;5.08;100.00;97414.91;4972669;28;20577;-82
2022/09/30 03:37:26;;;;;;;3.90;1.63;;;4.30;99.90;;;5.14;100.00;97416.81;4972462;28;20451;-82
2022/09/30 03:40:10;;;;;;;1.93;1.50;;;4.30;99.90;;;5.21;100.00;97416.97;4972329;28;20953;-82
2022/09/30 03:42:46;;;;;;;1.70;1.60;;;4.40;99.90;;;5.17;100.00;97424.28;4972219;28;20528;-83
2022/09/30 03:45:25;;;;;;;2.37;1.87;;;4.30;99.90;;;5.08;100.00;97428.69;4971112;28;21027;-82
2022/09/30 03:48:01;;;;;;;4.20;2.07;;;4.20;99.90;;;5.07;100.00;97416.69;4969291;28;20472;-82
2022/09/30 03:50:34;;;;;;;3.17;2.20;;;4.30;99.90;;;5.02;100.00;97424.19;4970584;28;20475;-86
2022/09/30 03:53:09;;;;;;;7.13;2.23;;;4.30;99.90;;;4.98;100.00;97422.09;4966179;28;20478;-82
2022/09/30 03:55:48;;;;;;;1.77;1.67;;;4.20;99.90;;;4.98;100.00;97422.09;4971672;28;20541;-82
2022/09/30 03:58:20;;;;;;;9.03;2.40;;;4.10;99.90;;;4.93;100.00;97426.94;4969476;28;20465;-81
2022/09/30 04:00:52;;;;;;;1.40;1.30;;;4.00;99.90;;;4.90;100.00;97424.69;4972081;28;20446;-82
2022/09/30 04:03:23;;;;;;;2.87;2.17;;;4.10;99.90;;;4.85;100.00;97437.34;4971428;28;20457;-81
2022/09/30 04:05:51;;;;;;;1.67;1.57;;;4.10;99.90;;;4.81;100.00;97439.47;4971694;28;20531;-82
2022/09/30 04:08:21;;;;;;;2.13;1.70;;;4.10;99.90;;;4.78;100.00;97441.56;4971491;28;20484;-82
2022/09/30 04:10:53;;;;;;;3.00;2.00;;;4.00;99.90;;;4.75;100.00;97447.09;4971690;28;20571;-82
2022/09/30 04:13:23;;;;;;;2.73;1.73;;;3.90;99.90;;;4.77;100.00;97445.13;4970952;28;20464;-82
2022/09/30 04:15:55;;;;;;;2.10;1.90;;;4.00;99.90;;;4.74;100.00;97446.28;4972261;28;20546;-82
2022/09/30 04:18:24;;;;;;;1.87;1.77;;;3.90;99.90;;;4.73;100.00;97449.00;4971525;28;20453;-82
2022/09/30 04:20:53;;;;;;;2.03;1.93;;;3.90;99.90;;;4.71;100.00;97450.97;4971576;28;20835;-82
2022/09/30 04:23:22;;;;;;;2.13;1.80;;;3.80;99.90;;;4.65;100.00;97452.41;4971561;28;20508;-84
2022/09/30 04:25:55;;;;;;;1.70;1.60;;;3.80;99.90;;;4.64;100.00;97453.41;4968674;28;20509;-85
2022/09/30 04:28:24;;;;;;;1.63;1.50;;;3.70;99.90;;;4.63;100.00;97453.56;4967688;28;20560;-83
2022/09/30 04:30:53;;;;;;;2.07;1.90;;;3.70;99.90;;;4.64;100.00;97453.41;4967455;28;20570;-82
2022/09/30 04:33:21;;;;;;;1.40;1.30;;;3.80;99.90;;;4.59;100.00;97453.09;4968865;28;20465;-82
2022/09/30 04:35:54;;;;;;;2.17;1.97;;;3.80;99.90;;;4.56;100.00;97451.63;4967356;28;20515;-82
2022/09/30 04:38:25;;;;;;;2.60;2.00;;;3.70;99.90;;;4.50;100.00;97452.31;4969832;28;20472;-83
2022/09/30 04:40:55;;;;;;;1.67;1.57;;;3.70;99.90;;;4.52;100.00;97450.34;4966820;28;20579;-82
2022/09/30 04:43:26;;;;;;;1.93;1.60;;;3.60;99.90;;;4.51;100.00;97453.13;4971809;28;20536;-81
2022/09/30 04:45:56;;;;;;;1.90;1.80;;;3.60;99.90;;;4.49;100.00;97457.63;4970151;28;20477;-81
2022/09/30 04:48:26;;;;;;;2.03;1.50;;;3.60;99.90;;;4.41;100.00;97468.78;4970701;28;20955;-81
2022/09/30 04:50:55;;;;;;;1.90;1.77;;;3.50;99.90;;;4.33;100.00;97473.19;4970491;28;20540;-81
2022/09/30 04:53:24;;;;;;;1.60;1.50;;;3.40;99.90;;;4.30;100.00;97476.09;4972109;28;20472;-81
2022/09/30 04:56:01;;;;;;;2.63;1.60;;;3.30;99.90;;;4.29;100.00;97477.06;4972366;28;20451;-81
2022/09/30 04:58:31;;;;;;;2.07;1.60;;;3.40;99.90;;;4.31;100.00;97482.88;4972391;28;20481;-81
2022/09/30 05:01:07;;;;;;;2.30;1.90;;;3.40;99.90;;;4.28;100.00;97496.13;4972275;28;20456;-82
2022/09/30 05:03:37;;;;;;;3.37;1.70;;;3.30;99.90;;;4.21;100.00;97495.16;4971033;28;20966;-81
2022/09/30 05:06:07;;;;;;;1.50;1.40;;;3.20;99.90;;;4.15;100.00;97498.38;4971520;28;20444;-81
2022/09/30 05:08:36;;;;;;;1.83;1.60;;;3.30;99.90;;;4.13;100.00;97498.53;4972084;28;20444;-81
2022/09/30 05:11:17;;;;;;;3.47;1.77;;;3.30;99.90;;;4.19;100.00;97497.91;4972311;28;20448;-81
2022/09/30 05:13:48;;;;;;;2.50;1.57;;;3.30;99.90;;;4.11;100.00;97502.25;4972173;28;20483;-81
2022/09/30 05:16:18;;;;;;;2.43;2.03;;;3.30;99.90;;;4.12;100.00;97516.81;4972214;28;20511;-82
2022/09/30 05:18:47;;;;;;;4.23;1.90;;;3.20;99.90;;;4.13;100.00;97518.44;4971688;28;20444;-81
2022/09/30 05:21:19;;;;;;;3.47;1.83;;;3.20;99.90;;;4.12;100.00;97527.97;4971358;28;20486;-81
2022/09/30 05:23:48;;;;;;;2.40;2.13;;;3.20;99.90;;;4.14;100.00;97533.78;4971799;28;20463;-81
2022/09/30 05:26:19;;;;;;;3.30;1.80;;;3.20;99.90;;;4.09;100.00;97536.06;4972025;28;20457;-81
2022/09/30 05:28:47;;;;;;;4.40;2.20;;;3.20;99.90;;;4.02;100.00;97530.72;4970864;28;20535;-81
2022/09/30 05:31:16;;;;;;;1.97;1.77;;;3.20;99.90;;;3.98;100.00;97541.53;4971125;28;20503;-81
2022/09/30 05:33:46;;;;;;;11.20;2.87;;;3.10;99.90;;;4.04;100.00;97546.88;4970741;28;20457;-81
2022/09/30 05:36:16;;;;;;;2.63;2.43;;;3.10;99.90;;;4.04;100.00;97544.28;4969979;28;20567;-81
2022/09/30 05:38:45;;;;;;;10.80;2.87;;;3.10;99.90;;;4.02;100.00;97542.84;4970635;28;20510;-81
2022/09/30 05:41:14;;;;;;;5.13;2.10;;;3.10;99.90;;;4.02;100.00;97550.59;4971870;28;20540;-82
2022/09/30 05:43:46;;;;;;;2.90;2.50;;;3.00;99.90;;;4.00;100.00;97552.50;4971584;28;21043;-81
2022/09/30 05:46:16;;;;;;;2.37;2.10;;;3.00;99.90;;;4.03;100.00;97559.97;4971443;28;20495;-81
2022/09/30 05:48:45;;;;;;;4.20;1.97;;;3.00;99.90;;;4.04;100.00;97559.00;4971522;28;20958;-81
2022/09/30 05:51:14;;;;;;;2.57;2.10;;;3.00;99.90;;;4.03;100.00;97554.78;4971813;28;21092;-81
2022/09/30 05:53:44;;;;;;;3.00;2.70;;;3.10;99.90;;;4.04;100.00;97561.59;4971154;28;21008;-81
2022/09/30 05:56:13;;;;;;;2.93;2.50;;;3.10;99.90;;;4.04;100.00;97561.59;4970849;28;20553;-81
2022/09/30 05:58:42;;;;;;;4.67;3.50;;;3.10;99.90;;;4.02;100.00;97569.53;4971295;28;20820;-81
2022/09/30 06:01:14;;;;;;;10.33;3.07;;;3.00;99.90;;;4.08;100.00;97562.91;4971479;28;21032;-81
2022/09/30 06:03:45;;;;;;;2.63;2.43;;;3.10;99.90;;;4.12;100.00;97571.16;4971155;28;20471;-81
2022/09/30 06:06:14;;;;;;;3.13;2.50;;;3.20;99.90;;;4.09;100.00;97568.88;4970951;28;20494;-81
2022/09/30 06:08:44;;;;;;;2.50;2.30;;;3.20;99.90;;;4.11;100.00;97578.09;4971367;28;20612;-81
2022/09/30 06:11:15;;;;;;;2.87;2.40;;;3.20;99.90;;;4.07;100.00;97579.38;4969727;28;20526;-81
2022/09/30 06:13:46;;;;;;;14.70;3.90;;;3.20;99.90;;;4.03;100.00;97585.81;4971036;28;20499;-81
2022/09/30 06:16:18;;;;;;;11.73;3.10;;;3.10;99.90;;;4.06;100.00;97585.53;4970111;28;20448;-81
2022/09/30 06:18:47;;;;;;;9.90;2.53;;;3.10;99.90;;;4.01;100.00;97583.41;4971058;28;20483;-81
2022/09/30 06:21:18;;;;;;;2.57;2.37;;;3.10;99.90;;;3.98;100.00;97590.69;4971319;28;20540;-81
2022/09/30 06:23:47;;;;;;;3.63;2.83;;;3.00;99.90;;;3.99;100.00;97594.88;4970193;28;20970;-81
2022/09/30 06:26:15;;;;;;;2.60;2.40;;;3.10;99.90;;;3.98;100.00;97593.25;4971099;28;20454;-82
2022/09/30 06:28:44;;;;;;;3.10;2.30;;;3.00;99.90;;;3.95;100.00;97591.00;4970622;28;20488;-81
2022/09/30 06:31:13;;;;;;;2.90;2.47;;;3.00;99.90;;;4.00;100.00;97597.31;4969880;28;20806;-81
2022/09/30 06:33:44;;;;;;;2.90;2.60;;;3.00;99.90;;;4.00;100.00;97601.66;4970224;28;20507;-81
2022/09/30 06:36:15;;;;;;;6.03;2.80;;;3.10;99.90;;;4.03;100.00;97604.75;4970897;28;20440;-81
2022/09/30 06:38:45;;;;;;;4.53;3.07;;;3.10;99.90;;;4.03;100.00;97607.34;4970585;28;20467;-81
2022/09/30 06:41:14;;;;;;;4.33;2.90;;;3.10;99.90;;;4.08;100.00;97599.09;4969071;28;20822;-81
2022/09/30 06:43:43;;;;;;;4.40;3.00;;;3.10;99.90;;;4.11;100.00;97609.13;4971031;28;20460;-81
2022/09/30 06:46:26;;;;;;;2.77;2.17;;;3.20;99.90;;;4.12;100.00;97609.94;4970424;28;20444;-81
2022/09/30 06:49:00;;;;;;;3.27;2.43;;;3.20;99.90;;;4.17;100.00;97612.88;4970522;28;20467;-81
2022/09/30 06:51:41;;;;;;;3.60;2.47;;;3.20;99.90;;;4.22;100.00;97616.63;4969913;28;20463;-81
2022/09/30 06:54:11;;;;;;;2.90;2.47;;;3.30;99.90;;;4.27;100.00;97619.53;4970595;28;20564;-81
2022/09/30 06:56:42;;;;;;;3.00;2.30;;;3.40;99.90;;;4.26;100.00;97620.50;4969938;28;20461;-80
2022/09/30 06:59:15;;;;;;;2.83;2.53;;;3.30;99.90;;;4.24;100.00;97624.19;4969989;28;20472;-81
2022/09/30 07:01:44;;;;;;;3.20;2.43;;;3.30;99.90;;;4.27;100.00;97631.69;4969544;28;20507;-80
2022/09/30 07:04:15;;;;;;;2.77;2.00;;;3.40;99.90;;;4.31;100.00;97631.19;4969038;28;20453;-81
2022/09/30 07:06:43;;;;;;;2.40;2.20;;;3.40;99.90;;;4.32;100.00;97625.03;4969746;28;20487;-81
2022/09/30 07:09:12;;;;;;;3.80;2.50;;;3.40;99.90;;;4.35;100.00;97622.13;4973064;28;20448;-81
2022/09/30 07:11:41;;;;;;;2.47;2.27;;;3.50;99.90;;;4.39;100.00;97628.63;4974174;28;20543;-81
2022/09/30 07:14:12;;;;;;;3.03;2.13;;;3.50;99.90;;;4.41;100.00;97629.25;4973356;28;21004;-81
2022/09/30 07:16:40;;;;;;;2.90;2.50;;;3.50;99.90;;;4.45;100.00;97625.38;4974394;28;20485;-81
2022/09/30 07:19:12;;;;;;;4.20;2.27;;;3.60;99.90;;;4.48;100.00;97625.06;4974143;28;20459;-81
2022/09/30 07:21:41;;;;;;;10.30;2.50;;;3.60;99.90;;;4.52;100.00;97631.56;4973525;28;20460;-81
2022/09/30 07:24:11;;;;;;;4.00;2.83;;;3.70;99.90;;;4.56;100.00;97625.09;4972815;28;20500;-80
2022/09/30 07:26:39;;;;;;;4.60;2.70;;;3.90;99.90;;;4.60;100.00;97619.59;4973733;28;20573;-81
2022/09/30 07:29:08;;;;;;;3.00;2.17;;;3.80;99.90;;;4.65;100.00;97617.34;4974259;28;20518;-80
2022/09/30 07:31:36;;;;;;;4.77;2.57;;;3.90;99.90;;;4.69;100.00;97618.63;4973071;28;20492;-80
2022/09/30 07:34:08;;;;;;;3.53;2.90;;;3.90;99.90;;;4.73;100.00;97628.50;4973071;28;20620;-81
2022/09/30 07:36:39;;;;;;;4.80;2.73;;;3.90;99.90;;;4.76;100.00;97628.19;4973824;28;20460;-80
2022/09/30 07:39:11;;;;;;;2.87;2.27;;;4.00;99.90;;;4.79;100.00;97627.84;4973427;28;20523;-81
2022/09/30 07:41:43;;;;;;;7.30;3.30;;;4.00;99.90;;;4.84;100.00;97624.78;4972936;28;20536;-81
2022/09/30 07:44:14;;;;;;;3.27;2.83;;;4.10;99.90;;;4.89;100.00;97630.31;4972992;28;20484;-81
2022/09/30 07:46:45;;;;;;;4.60;2.90;;;4.20;99.90;;;4.91;100.00;97624.00;4972986;28;20879;-81
2022/09/30 07:49:23;;;;;;;6.03;2.73;;;4.20;99.90;;;4.95;100.00;97632.25;4972502;28;20461;-80
2022/09/30 07:51:54;;;;;;;3.00;2.70;;;4.20;99.90;;;5.00;100.00;97624.78;4971871;28;20896;-80
2022/09/30 07:54:27;;;;;;;4.40;2.87;;;4.30;99.90;;;5.05;100.00;97630.31;4972388;28;20575;-80
2022/09/30 07:56:58;;;;;;;4.93;2.73;;;4.30;99.90;;;5.10;100.00;97628.03;4972641;28;20553;-81
2022/09/30 07:59:42;;;;;;;3.47;2.87;;;4.40;99.90;;;5.15;100.00;97636.13;4972321;28;20456;-80
2022/09/30 08:02:16;;;;;;;6.00;2.80;;;4.50;99.90;;;5.20;100.00;97633.88;4971595;28;20545;-80
2022/09/30 08:04:45;;;;;;;6.43;2.60;;;4.50;99.90;;;5.25;100.00;97641.94;4972012;28;20532;-81
2022/09/30 08:07:17;;;;;;;3.67;2.87;;;4.60;99.90;;;5.30;100.00;97634.50;4972107;28;21028;-81
2022/09/30 08:09:48;;;;;;;2.93;2.50;;;4.70;99.90;;;5.32;100.00;97637.72;4971845;28;20469;-80
2022/09/30 08:12:16;;;;;;;4.53;2.77;;;4.60;99.90;;;5.39;100.00;97638.69;4971664;28;20454;-81
2022/09/30 08:14:46;;;;;;;5.30;2.30;;;4.70;99.90;;;5.46;100.00;97636.25;4971828;28;20495;-80
2022/09/30 08:17:15;;;;;;;5.63;2.73;;;4.80;99.90;;;5.51;100.00;97639.97;4972291;28;20505;-80
2022/09/30 08:19:44;;;;;;;3.17;2.20;;;4.90;99.90;;;5.58;100.00;97640.13;4971473;28;20566;-81
2022/09/30 08:22:13;;;;;;;3.50;2.30;;;4.90;99.90;;;5.67;100.00;97638.31;4973114;28;20454;-81
2022/09/30 08:24:42;;;;;;;3.00;2.20;;;5.00;99.90;;;5.72;100.00;97644.63;4971475;28;20554;-81
2022/09/30 08:27:12;;;;;;;3.73;1.83;;;5.10;99.90;;;5.81;100.00;97646.22;4971135;28;20969;-80
2022/09/30 08:29:41;;;;;;;1.93;1.60;;;5.20;99.90;;;5.88;100.00;97649.78;4972170;28;20984;-80
2022/09/30 08:32:30;;;;;;;3.83;2.00;;;5.30;99.90;;;5.96;100.00;97646.38;4973206;28;20463;-80
2022/09/30 08:34:59;;;;;;;5.70;2.37;;;5.40;99.90;;;6.01;100.00;97639.69;4972464;28;20590;-80
2022/09/30 08:37:28;;;;;;;4.30;2.23;;;5.40;99.90;;;6.07;100.00;97643.41;4972584;28;20962;-80
2022/09/30 08:39:57;;;;;;;2.33;1.80;;;5.40;99.90;;;6.11;100.00;97639.47;4972211;28;20627;-81
2022/09/30 08:42:51;;;;;;;2.60;1.60;;;5.50;99.90;;;6.18;100.00;97656.00;4972374;28;20510;-80
2022/09/30 08:45:39;;;;;;;3.37;2.63;;;5.60;99.90;;;6.25;100.00;97646.56;4971979;28;20902;-81
2022/09/30 08:48:27;;;;;;;4.20;2.60;;;5.70;99.90;;;6.31;100.00;97656.28;4972408;28;20445;-81
2022/09/30 08:51:19;;;;;;;2.30;2.00;;;5.70;99.90;;;6.39;100.00;97651.03;4972779;28;21153;-80
2022/09/30 08:53:49;;;;;;;2.00;1.80;;;5.80;99.90;;;6.46;100.00;97644.16;4971850;28;20535;-81
2022/09/30 08:56:25;;;;;;;2.53;2.00;;;5.90;99.90;;;6.53;100.00;97650.31;4971570;28;20965;-80
2022/09/30 08:59:04;;;;;;;2.67;1.83;;;6.00;99.90;;;6.61;100.00;97646.84;4972074;28;20460;-80
2022/09/30 09:01:38;;;;;;;2.90;2.40;;;6.10;99.90;;;6.69;100.00;97646.00;4971366;28;20558;-81
2022/09/30 09:04:10;;;;;;;3.83;2.03;;;6.10;99.90;;;6.77;100.00;97651.16;4971568;28;20471;-81
2022/09/30 09:06:57;;;;;;;3.37;2.00;;;6.20;99.90;;;6.86;100.00;97660.50;4972062;28;20476;-81
2022/09/30 09:09:46;;;;;;;4.03;1.93;;;6.30;99.90;;;6.95;100.00;97659.44;4972108;28;20461;-81
2022/09/30 09:12:31;;;;;;;2.20;1.93;;;6.40;99.90;;;7.02;100.00;97661.19;4971079;28;20496;-81
2022/09/30 09:15:34;;;;;;;4.40;1.87;;;6.50;99.90;;;7.11;100.00;97668.94;4971969;28;20571;-80
2022/09/30 09:18:37;;;;;;;1.80;1.70;;;6.60;99.90;;;7.18;100.00;97665.47;4972028;28;20931;-81
2022/09/30 09:21:22;;;;;;;3.13;1.60;;;6.70;99.90;;;7.26;100.00;97664.56;4970601;28;20547;-81
2022/09/30 09:23:54;;;;;;;5.13;1.90;;;6.80;99.90;;;7.34;100.00;97657.50;4969013;28;20527;-80
2022/09/30 09:26:26;;;;;;;5.73;2.30;;;6.90;99.90;;;7.42;100.00;97662.66;4971150;28;20983;-81
2022/09/30 09:29:16;;;;;;;9.57;2.17;;;7.00;99.90;;;7.49;100.00;97663.56;4971609;28;20437;-81
2022/09/30 09:31:47;;;;;;;2.20;1.80;;;7.10;99.90;;;7.56;100.00;97661.06;4970730;28;20471;-80
2022/09/30 09:34:15;;;;;;;6.50;2.30;;;7.10;99.90;;;7.64;100.00;97667.94;4971360;28;20488;-81
2022/09/30 09:37:06;;;;;;;4.33;2.07;;;7.20;99.90;;;7.71;100.00;97671.47;4971143;28;20539;-81
2022/09/30 09:40:00;;;;;;;3.07;2.40;;;7.30;99.90;;;7.79;100.00;97668.78;4971199;28;20488;-81
2022/09/30 09:43:00;;;;;;;4.20;2.17;;;7.40;99.90;;;7.88;100.00;97665.13;4971118;28;20455;-81
2022/09/30 09:45:41;;;;;;;4.03;1.70;;;7.50;99.90;;;7.96;100.00;97655.41;4971863;28;20461;-81
2022/09/30 09:48:14;;;;;;;5.83;2.00;;;7.60;99.90;;;8.03;100.00;97664.13;4971386;28;20460;-81
2022/09/30 09:50:56;;;;;;;2.90;1.67;;;7.70;99.90;;;8.10;100.00;97669.41;4972077;28;20450;-81
2022/09/30 09:53:49;;;;;;;1.83;1.23;;;7.70;99.90;;;8.19;100.00;97670.94;4970689;28;20472;-81
2022/09/30 09:56:20;;;;;;;1.57;1.47;;;7.80;99.90;;;8.26;100.00;97671.81;4970595;28;21142;-81
2022/09/30 09:59:14;;;;;;;3.80;1.37;;;7.90;99.90;;;8.34;100.00;97669.16;4971206;28;20912;-81
2022/09/30 10:01:50;;;;;;;6.10;1.60;;;8.00;99.90;;;8.42;100.00;97663.03;4970524;28;20471;-81
2022/09/30 10:04:25;;;;;;;3.87;1.40;;;8.10;99.90;;;8.50;100.00;97658.50;4970537;28;20535;-81
2022/09/30 10:06:58;;;;;;;1.10;1.00;;;8.20;99.90;;;8.63;100.00;97651.84;4971042;28;20444;-81
2022/09/30 10:09:33;;;;;;;1.77;1.40;;;8.30;99.90;;;8.69;100.00;97643.28;4970484;28;20495;-81
2022/09/30 10:12:29;;;;;;;5.57;1.33;;;8.40;99.90;;;8.76;100.00;97638.94;4969726;28;20484;-81
2022/09/30 10:15:02;;;;;;;1.37;1.20;;;8.40;99.90;;;8.81;100.00;97628.78;4969331;28;20496;-81
2022/09/30 10:17:34;;;;;;;4.10;1.40;;;8.50;99.90;;;8.90;100.00;97627.66;4969715;28;20896;-80
2022/09/30 10:20:18;;;;;;;2.10;1.43;;;8.60;99.90;;;9.01;100.00;97624.56;4969508;28;20472;-81
2022/09/30 10:22:49;;;;;;;1.53;1.13;;;8.70;99.90;;;9.08;100.00;97623.63;4969396;28;20452;-80
2022/09/30 10:25:24;;;;;;;3.00;1.10;;;8.70;99.90;;;9.14;100.00;97624.66;4968906;28;20603;-81
2022/09/30 10:27:58;;;;;;;3.40;1.40;;;8.80;99.90;;;9.20;100.00;97621.28;4970906;28;20543;-81
2022/09/30 10:30:53;;;;;;;4.53;1.30;;;8.90;99.90;;;9.28;100.00;97626.38;4970463;28;20538;-81
2022/09/30 10:33:31;;;;;;;1.87;1.40;;;9.00;99.90;;;9.34;100.00;97633.44;4969347;28;20456;-81
2022/09/30 10:36:17;;;;;;;5.90;1.30;;;9.10;99.90;;;9.41;100.00;97631.69;4970397;28;20520;-82
2022/09/30 10:38:59;;;;;;;2.63;1.40;;;9.20;99.90;;;9.48;100.00;97632.53;4970471;28;20547;-81
2022/09/30 10:41:37;;;;;;;1.63;1.10;;;9.20;99.90;;;9.57;100.00;97638.44;4969480;28;20461;-81
2022/09/30 10:44:18;;;;;;;1.50;1.00;;;9.30;99.90;;;9.67;100.00;97627.66;4973521;28;21011;-81
2022/09/30 10:46:52;;;;;;;4.43;1.60;;;9.40;99.90;;;9.74;100.00;97631.91;4974341;28;20531;-80
2022/09/30 10:49:30;;;;;;;1.27;0.80;;;9.50;99.90;;;9.84;100.00;97636.78;4974435;28;20529;-81
2022/09/30 10:52:02;;;;;;;1.20;1.10;;;9.60;99.90;;;9.90;100.00;97630.78;4974011;28;20559;-81
2022/09/30 10:54:52;;;;;;;4.70;1.10;;;9.70;99.90;;;9.98;100.00;97631.47;4974270;28;20578;-81
2022/09/30 10:57:25;;;;;;;1.63;0.97;;;9.80;99.90;;;10.11;100.00;97635.94;4974232;28;20476;-80
2022/09/30 10:59:59;;;;;;;1.10;1.00;;;9.90;99.90;;;10.21;100.00;97623.34;4973975;28;20464;-81
2022/09/30 11:02:39;;;;;;;1.53;1.00;;;10.00;99.90;;;10.32;100.00;97620.16;4973236;28;20538;-80